Time;durP1;ratioP1;P1;durP2;ratioP2;P2;SDS_P1;SDS_P2;PMS_P1;PMS_P2;Temp;Humidity;BMP_temperature;BMP_pressure;BME280_temperature;BME280_humidity;BME280_pressure;Samples;Min_cycle;Max_cycle;Signal;HPM_P1;HPM_P2
2023/09/06 00:00:45;;;;;;;20.80;10.00;;;;;;;16.47;76.60;99959.98;108325;1304;22380;-48
2023/09/06 00:03:12;;;;;;;21.30;10.10;;;;;;;16.47;76.54;99958.05;108340;1304;22339;-43
2023/09/06 00:05:41;;;;;;;16.60;9.50;;;;;;;16.47;75.99;99954.55;108329;1304;22386;-44
2023/09/06 00:08:09;;;;;;;20.40;9.90;;;;;;;16.47;75.89;99955.63;108310;1304;22213;-47
2023/09/06 00:10:40;;;;;;;17.60;8.50;;;;;;;16.46;75.90;99955.98;108330;1304;22891;-49
2023/09/06 00:13:07;;;;;;;20.60;9.50;;;;;;;16.47;75.66;99957.90;108327;1304;22187;-43
2023/09/06 00:15:32;;;;;;;22.80;8.40;;;;;;;16.48;75.84;99958.91;108345;1304;22220;-43
2023/09/06 00:17:57;;;;;;;18.80;8.40;;;;;;;16.47;75.34;99955.22;108315;1304;22193;-46
2023/09/06 00:20:24;;;;;;;20.80;8.40;;;;;;;16.46;75.70;99954.23;108317;1304;22256;-47
2023/09/06 00:23:09;;;;;;;24.80;8.20;;;;;;;16.45;75.51;99945.48;108318;1304;23388;-45
2023/09/06 00:25:35;;;;;;;16.70;7.80;;;;;;;16.44;75.29;99937.95;108314;1304;22441;-47
2023/09/06 00:28:06;;;;;;;17.80;8.00;;;;;;;16.43;75.49;99937.13;108322;1304;22389;-44
2023/09/06 00:30:32;;;;;;;17.90;8.40;;;;;;;16.43;75.94;99937.11;108075;1304;23194;-50
2023/09/06 00:32:59;;;;;;;16.60;7.70;;;;;;;16.42;75.63;99934.35;108076;1304;22209;-44
2023/09/06 00:35:25;;;;;;;15.30;7.80;;;;;;;16.40;75.10;99935.35;108309;1304;22190;-46
2023/09/06 00:37:54;;;;;;;12.90;7.20;;;;;;;16.40;75.22;99938.19;108324;1304;23110;-51
2023/09/06 00:40:21;;;;;;;18.10;7.70;;;;;;;16.39;75.21;99942.20;108326;1304;22246;-42
2023/09/06 00:42:48;;;;;;;15.70;7.80;;;;;;;16.39;75.37;99943.42;108309;1304;23359;-51
2023/09/06 00:45:15;;;;;;;12.10;7.10;;;;;;;16.38;75.29;99944.69;108306;1304;22610;-43
2023/09/06 00:47:42;;;;;;;16.60;7.00;;;;;;;16.35;75.69;99945.09;108341;1288;22437;-48
2023/09/06 00:50:10;;;;;;;14.20;6.90;;;;;;;16.33;76.23;99946.83;108315;1304;22413;-45
2023/09/06 00:52:36;;;;;;;15.40;6.90;;;;;;;16.30;75.82;99945.97;108298;1304;22215;-47
2023/09/06 00:55:02;;;;;;;14.30;7.40;;;;;;;16.29;75.63;99942.00;108307;1304;22976;-45
2023/09/06 00:57:29;;;;;;;11.70;6.60;;;;;;;16.27;75.57;99941.39;108322;1304;23151;-46
2023/09/06 00:59:58;;;;;;;14.90;7.30;;;;;;;16.25;75.76;99937.86;108317;1286;22239;-44
2023/09/06 01:02:24;;;;;;;13.30;6.90;;;;;;;16.24;75.99;99937.55;108309;1304;22253;-52
2023/09/06 01:04:49;;;;;;;14.20;6.60;;;;;;;16.22;76.48;99936.45;108325;1304;22234;-48
2023/09/06 01:07:15;;;;;;;16.60;7.20;;;;;;;16.21;76.34;99933.70;108323;1304;22304;-48
2023/09/06 01:09:41;;;;;;;12.60;7.00;;;;;;;16.19;76.48;99931.19;108302;1304;22234;-51
2023/09/06 01:12:10;;;;;;;12.80;6.70;;;;;;;16.18;76.20;99929.30;108329;1304;22097;-51
2023/09/06 01:14:38;;;;;;;13.90;7.20;;;;;;;16.17;76.07;99926.54;108325;1304;22264;-46
2023/09/06 01:17:04;;;;;;;13.70;7.10;;;;;;;16.16;76.33;99926.77;108324;1304;22395;-46
2023/09/06 01:19:32;;;;;;;12.90;6.90;;;;;;;16.16;77.01;99926.45;108314;1304;22223;-46
2023/09/06 01:22:06;;;;;;;16.70;7.50;;;;;;;16.14;76.73;99928.88;108313;1304;22490;-45
2023/09/06 01:24:31;;;;;;;10.90;6.60;;;;;;;16.12;76.84;99926.48;108063;1304;22193;-48
2023/09/06 01:26:57;;;;;;;15.50;7.20;;;;;;;16.11;76.28;99925.30;108314;1304;22405;-44
2023/09/06 01:29:23;;;;;;;12.30;6.80;;;;;;;16.10;76.67;99926.23;108306;1304;23046;-47
2023/09/06 01:31:48;;;;;;;15.10;6.30;;;;;;;16.09;76.63;99922.46;108320;1304;22433;-44
2023/09/06 01:34:14;;;;;;;12.20;6.40;;;;;;;16.09;76.40;99923.70;108308;1304;23087;-46
2023/09/06 01:36:39;;;;;;;12.20;7.20;;;;;;;16.08;76.69;99923.59;108314;1295;22206;-51
2023/09/06 01:39:08;;;;;;;10.70;6.60;;;;;;;16.08;76.78;99923.75;108312;1304;22217;-48
2023/09/06 01:41:33;;;;;;;11.90;7.40;;;;;;;16.06;77.17;99926.35;108312;1304;22255;-47
2023/09/06 01:44:00;;;;;;;12.70;7.30;;;;;;;16.03;76.46;99922.31;108326;1304;22225;-49
2023/09/06 01:46:26;;;;;;;14.90;7.40;;;;;;;16.02;76.75;99920.27;108324;1304;22481;-49
2023/09/06 01:48:51;;;;;;;14.30;7.40;;;;;;;16.00;76.97;99915.48;108299;1304;22270;-46
2023/09/06 01:51:16;;;;;;;11.90;7.00;;;;;;;15.98;76.84;99914.59;108310;1289;22253;-43
2023/09/06 01:53:42;;;;;;;15.00;6.90;;;;;;;15.95;76.98;99913.85;108294;1304;23347;-48
2023/09/06 01:56:07;;;;;;;11.70;7.30;;;;;;;15.94;76.85;99914.80;108304;1304;22274;-47
2023/09/06 01:58:34;;;;;;;14.30;7.00;;;;;;;15.93;76.58;99915.59;108306;1304;22361;-45
2023/09/06 02:01:00;;;;;;;15.40;7.00;;;;;;;15.92;77.26;99916.89;108315;1304;22406;-45
2023/09/06 02:03:27;;;;;;;16.10;6.90;;;;;;;15.91;77.27;99919.59;108312;1304;22204;-52
2023/09/06 02:05:52;;;;;;;15.70;7.10;;;;;;;15.91;77.42;99911.69;108325;1304;23047;-44
2023/09/06 02:08:17;;;;;;;17.90;6.90;;;;;;;15.89;77.56;99908.97;108295;1304;22232;-46
2023/09/06 02:10:43;;;;;;;13.40;7.20;;;;;;;15.88;77.16;99909.22;108287;1304;22251;-49
2023/09/06 02:13:08;;;;;;;9.60;6.60;;;;;;;15.87;77.13;99914.56;108317;1304;23113;-41
2023/09/06 02:15:33;;;;;;;14.90;7.20;;;;;;;15.86;76.93;99912.34;108324;1304;22135;-45
2023/09/06 02:17:59;;;;;;;13.40;7.20;;;;;;;15.84;76.60;99914.58;108308;1304;22223;-49
2023/09/06 02:20:25;;;;;;;13.30;7.50;;;;;;;15.82;76.93;99916.88;108298;1304;22389;-51
2023/09/06 02:22:56;;;;;;;12.20;6.60;;;;;;;15.82;76.75;99922.20;108311;1304;22253;-45
2023/09/06 02:25:28;;;;;;;14.20;6.80;;;;;;;15.80;77.03;99922.32;108323;1304;23043;-46
2023/09/06 02:27:54;;;;;;;13.70;7.10;;;;;;;15.79;77.42;99922.40;108291;1304;22206;-42
2023/09/06 02:30:20;;;;;;;12.30;7.10;;;;;;;15.79;77.35;99921.00;108318;1304;22222;-48
2023/09/06 02:32:47;;;;;;;13.30;7.10;;;;;;;15.78;77.38;99923.71;108317;1304;23213;-47
2023/09/06 02:35:13;;;;;;;14.20;6.50;;;;;;;15.74;77.23;99927.78;108302;1304;22212;-45
2023/09/06 02:37:38;;;;;;;13.90;6.60;;;;;;;15.72;77.46;99930.88;108304;1304;22211;-48
2023/09/06 02:40:13;;;;;;;11.90;7.20;;;;;;;15.72;78.08;99933.38;108301;1304;22205;-49
2023/09/06 02:43:44;;;;;;;11.80;6.50;;;;;;;15.75;78.05;99931.08;106781;1308;545828;-47
2023/09/06 02:46:10;;;;;;;14.80;7.50;;;;;;;15.71;78.14;99930.61;107223;1306;22245;-43
2023/09/06 02:48:35;;;;;;;12.00;6.70;;;;;;;15.71;78.18;99933.12;107240;1314;23144;-51
2023/09/06 02:51:01;;;;;;;15.40;7.50;;;;;;;15.69;78.40;99934.84;107246;1314;22225;-48
2023/09/06 02:53:26;;;;;;;12.50;7.00;;;;;;;15.67;78.77;99936.04;107249;1314;22348;-48
2023/09/06 02:55:53;;;;;;;14.40;7.30;;;;;;;15.65;78.63;99932.10;107251;1314;23110;-48
2023/09/06 02:58:25;;;;;;;11.00;7.60;;;;;;;15.63;79.01;99937.88;107324;1312;152253;-46
2023/09/06 03:00:57;;;;;;;19.90;6.50;;;;;;;15.63;78.92;99942.14;107476;1295;22332;-46
2023/09/06 03:03:22;;;;;;;13.30;6.80;;;;;;;15.61;79.14;99942.61;107475;1289;23025;-46
2023/09/06 03:05:47;;;;;;;12.80;7.10;;;;;;;15.59;78.52;99941.14;107446;1312;22297;-49
2023/09/06 03:08:13;;;;;;;16.30;8.10;;;;;;;15.59;78.87;99942.72;107450;1312;22426;-43
2023/09/06 03:10:44;;;;;;;11.50;6.80;;;;;;;15.58;78.79;99941.23;107698;1309;22277;-45
2023/09/06 03:13:10;;;;;;;12.80;7.20;;;;;;;15.57;79.14;99941.48;107696;1309;22965;-45
2023/09/06 03:15:35;;;;;;;15.10;7.40;;;;;;;15.56;78.82;99944.73;107683;1309;22211;-46
2023/09/06 03:18:02;;;;;;;15.40;7.60;;;;;;;15.54;79.22;99949.92;107678;1309;22273;-47
2023/09/06 03:20:42;;;;;;;9.50;6.40;;;;;;;15.54;79.67;99952.09;107721;1292;22226;-55
2023/09/06 03:23:17;;;;;;;17.00;7.80;;;;;;;15.52;79.42;99954.35;107712;1291;22446;-45
2023/09/06 03:25:47;;;;;;;16.30;7.60;;;;;;;15.50;79.23;99957.80;107688;1309;23008;-45
2023/09/06 03:28:14;;;;;;;14.30;7.30;;;;;;;15.49;79.31;99955.56;107678;1309;22237;-50
2023/09/06 03:30:40;;;;;;;12.20;7.10;;;;;;;15.49;79.80;99953.99;107621;1306;22420;-45
2023/09/06 03:33:06;;;;;;;14.00;7.30;;;;;;;15.47;79.77;99953.05;107655;1309;22209;-48
2023/09/06 03:35:32;;;;;;;14.20;7.10;;;;;;;15.46;80.21;99953.81;107695;1309;22931;-45
2023/09/06 03:37:58;;;;;;;12.70;6.90;;;;;;;15.45;80.18;99957.06;107696;1309;22957;-47
2023/09/06 03:40:42;;;;;;;11.60;7.10;;;;;;;15.44;79.99;99956.08;107704;1309;22351;-46
2023/09/06 03:43:19;;;;;;;14.70;7.40;;;;;;;15.42;80.48;99955.49;107687;1309;22489;-44
2023/09/06 03:45:51;;;;;;;13.80;7.10;;;;;;;15.41;80.70;99956.31;107733;1309;22224;-46
2023/09/06 03:48:20;;;;;;;10.40;7.10;;;;;;;15.39;80.88;99956.77;107697;1309;22319;-49
2023/09/06 03:50:48;;;;;;;13.10;7.20;;;;;;;15.37;80.65;99960.08;107699;1309;22239;-45
2023/09/06 03:53:15;;;;;;;14.00;7.00;;;;;;;15.36;80.91;99962.77;107704;1309;22260;-44
2023/09/06 03:55:41;;;;;;;12.30;7.00;;;;;;;15.36;80.62;99961.04;107697;1305;23089;-49
2023/09/06 03:58:07;;;;;;;18.50;7.90;;;;;;;15.36;80.68;99960.86;107700;1309;22963;-49
2023/09/06 04:00:33;;;;;;;13.20;7.10;;;;;;;15.33;80.62;99958.71;107712;1309;22296;-43
2023/09/06 04:02:58;;;;;;;13.30;7.30;;;;;;;15.34;80.83;99959.02;107690;1309;22242;-46
2023/09/06 04:05:25;;;;;;;12.10;7.50;;;;;;;15.34;80.61;99959.55;107679;1310;22257;-46
2023/09/06 04:07:58;;;;;;;17.40;7.70;;;;;;;15.33;81.31;99961.52;107691;1309;23028;-46
2023/09/06 04:10:27;;;;;;;13.90;7.50;;;;;;;15.32;81.15;99964.42;107693;1309;22391;-50
2023/09/06 04:12:55;;;;;;;14.10;7.50;;;;;;;15.31;81.76;99965.92;107677;1309;22267;-43
2023/09/06 04:15:23;;;;;;;;;;;;;;;15.31;81.50;99964.02;107708;1310;22540;-49
2023/09/06 04:17:59;;;;;;;15.80;7.30;;;;;;;15.30;81.71;99960.90;107694;1309;22717;-47
2023/09/06 04:20:31;;;;;;;27.30;7.60;;;;;;;15.29;81.52;99962.73;107683;1309;22215;-41
